sensor_id;sensor_type;location;lat;lon;timestamp;P1;durP1;ratioP1;P2;durP2;ratioP2
31043;SDS011;17710;52.520;13.352;2023-07-13T00:01:52;5.85;;;1.50;;
31043;SDS011;17710;52.520;13.352;2023-07-13T00:04:22;5.43;;;1.30;;
31043;SDS011;17710;52.520;13.352;2023-07-13T00:06:50;3.88;;;1.42;;
31043;SDS011;17710;52.520;13.352;2023-07-13T00:09:17;4.55;;;1.52;;
31043;SDS011;17710;52.520;13.352;2023-07-13T00:11:44;2.47;;;1.65;;
31043;SDS011;17710;52.520;13.352;2023-07-13T00:14:13;4.80;;;1.60;;
31043;SDS011;17710;52.520;13.352;2023-07-13T00:16:40;2.85;;;1.67;;
31043;SDS011;17710;52.520;13.352;2023-07-13T00:19:08;3.22;;;1.30;;
31043;SDS011;17710;52.520;13.352;2023-07-13T00:21:36;3.65;;;1.67;;
31043;SDS011;17710;52.520;13.352;2023-07-13T00:24:03;5.55;;;2.17;;
31043;SDS011;17710;52.520;13.352;2023-07-13T00:26:32;5.40;;;1.70;;
31043;SDS011;17710;52.520;13.352;2023-07-13T00:28:58;3.45;;;1.60;;
31043;SDS011;17710;52.520;13.352;2023-07-13T00:31:25;1.95;;;1.30;;
31043;SDS011;17710;52.520;13.352;2023-07-13T00:33:51;6.28;;;2.03;;
31043;SDS011;17710;52.520;13.352;2023-07-13T00:36:19;5.22;;;2.03;;
31043;SDS011;17710;52.520;13.352;2023-07-13T00:38:46;4.90;;;1.50;;
31043;SDS011;17710;52.520;13.352;2023-07-13T00:41:13;4.18;;;2.15;;
31043;SDS011;17710;52.520;13.352;2023-07-13T00:43:40;4.35;;;1.60;;
31043;SDS011;17710;52.520;13.352;2023-07-13T00:46:11;5.05;;;1.48;;
31043;SDS011;17710;52.520;13.352;2023-07-13T00:48:49;2.15;;;1.35;;
31043;SDS011;17710;52.520;13.352;2023-07-13T00:51:19;6.30;;;1.90;;
31043;SDS011;17710;52.520;13.352;2023-07-13T00:53:51;5.28;;;2.20;;
31043;SDS011;17710;52.520;13.352;2023-07-13T00:56:20;2.75;;;1.38;;
31043;SDS011;17710;52.520;13.352;2023-07-13T00:58:46;2.92;;;1.65;;
31043;SDS011;17710;52.520;13.352;2023-07-13T01:01:13;4.05;;;2.22;;
31043;SDS011;17710;52.520;13.352;2023-07-13T01:03:39;3.08;;;2.05;;
31043;SDS011;17710;52.520;13.352;2023-07-13T01:06:06;4.65;;;2.10;;
31043;SDS011;17710;52.520;13.352;2023-07-13T01:08:33;7.70;;;2.13;;
31043;SDS011;17710;52.520;13.352;2023-07-13T01:11:01;4.18;;;1.75;;
31043;SDS011;17710;52.520;13.352;2023-07-13T01:13:27;4.63;;;1.63;;
31043;SDS011;17710;52.520;13.352;2023-07-13T01:15:55;3.15;;;1.90;;
31043;SDS011;17710;52.520;13.352;2023-07-13T01:18:25;6.10;;;2.20;;
31043;SDS011;17710;52.520;13.352;2023-07-13T01:20:55;3.60;;;1.67;;
31043;SDS011;17710;52.520;13.352;2023-07-13T01:23:23;3.72;;;1.90;;
31043;SDS011;17710;52.520;13.352;2023-07-13T01:25:51;4.43;;;2.10;;
31043;SDS011;17710;52.520;13.352;2023-07-13T01:28:18;3.65;;;2.00;;
31043;SDS011;17710;52.520;13.352;2023-07-13T01:30:46;5.30;;;2.35;;
31043;SDS011;17710;52.520;13.352;2023-07-13T01:33:13;4.70;;;2.08;;
31043;SDS011;17710;52.520;13.352;2023-07-13T01:35:41;4.40;;;2.00;;
31043;SDS011;17710;52.520;13.352;2023-07-13T01:38:09;4.78;;;1.73;;
31043;SDS011;17710;52.520;13.352;2023-07-13T01:40:37;4.60;;;1.83;;
31043;SDS011;17710;52.520;13.352;2023-07-13T01:43:04;3.15;;;1.80;;
31043;SDS011;17710;52.520;13.352;2023-07-13T01:45:32;5.13;;;2.13;;
31043;SDS011;17710;52.520;13.352;2023-07-13T01:47:58;3.25;;;1.92;;
31043;SDS011;17710;52.520;13.352;2023-07-13T01:50:25;5.95;;;3.17;;
31043;SDS011;17710;52.520;13.352;2023-07-13T01:52:51;4.30;;;2.13;;
31043;SDS011;17710;52.520;13.352;2023-07-13T01:55:19;8.52;;;1.80;;
31043;SDS011;17710;52.520;13.352;2023-07-13T01:57:46;9.30;;;2.45;;
31043;SDS011;17710;52.520;13.352;2023-07-13T02:00:13;4.07;;;2.08;;
31043;SDS011;17710;52.520;13.352;2023-07-13T02:02:40;4.75;;;2.40;;
31043;SDS011;17710;52.520;13.352;2023-07-13T02:05:07;2.97;;;1.80;;
31043;SDS011;17710;52.520;13.352;2023-07-13T02:07:34;4.10;;;1.95;;
31043;SDS011;17710;52.520;13.352;2023-07-13T02:10:00;7.28;;;2.50;;
31043;SDS011;17710;52.520;13.352;2023-07-13T02:12:28;8.90;;;3.10;;
31043;SDS011;17710;52.520;13.352;2023-07-13T02:14:54;6.22;;;2.83;;
31043;SDS011;17710;52.520;13.352;2023-07-13T02:17:21;5.65;;;2.83;;
31043;SDS011;17710;52.520;13.352;2023-07-13T02:19:47;7.75;;;2.63;;
31043;SDS011;17710;52.520;13.352;2023-07-13T02:22:14;7.75;;;2.47;;
31043;SDS011;17710;52.520;13.352;2023-07-13T02:24:40;4.75;;;2.72;;
31043;SDS011;17710;52.520;13.352;2023-07-13T02:27:07;5.07;;;2.63;;
31043;SDS011;17710;52.520;13.352;2023-07-13T02:29:34;5.05;;;2.10;;
31043;SDS011;17710;52.520;13.352;2023-07-13T02:32:02;6.45;;;2.40;;
31043;SDS011;17710;52.520;13.352;2023-07-13T02:34:29;6.65;;;2.47;;
31043;SDS011;17710;52.520;13.352;2023-07-13T02:36:55;6.32;;;2.55;;
31043;SDS011;17710;52.520;13.352;2023-07-13T02:39:21;7.15;;;2.40;;
31043;SDS011;17710;52.520;13.352;2023-07-13T02:41:48;5.95;;;2.22;;
31043;SDS011;17710;52.520;13.352;2023-07-13T02:44:14;4.53;;;2.10;;
31043;SDS011;17710;52.520;13.352;2023-07-13T02:46:42;8.55;;;2.42;;
31043;SDS011;17710;52.520;13.352;2023-07-13T02:49:09;5.45;;;2.38;;
31043;SDS011;17710;52.520;13.352;2023-07-13T02:51:36;5.85;;;2.45;;
31043;SDS011;17710;52.520;13.352;2023-07-13T02:54:03;5.82;;;2.53;;
31043;SDS011;17710;52.520;13.352;2023-07-13T02:56:31;2.88;;;2.10;;
31043;SDS011;17710;52.520;13.352;2023-07-13T02:58:58;2.63;;;1.92;;
31043;SDS011;17710;52.520;13.352;2023-07-13T03:01:24;5.32;;;2.17;;
31043;SDS011;17710;52.520;13.352;2023-07-13T03:03:52;5.75;;;2.28;;
31043;SDS011;17710;52.520;13.352;2023-07-13T03:06:19;5.85;;;2.15;;
31043;SDS011;17710;52.520;13.352;2023-07-13T03:08:46;5.60;;;2.05;;
31043;SDS011;17710;52.520;13.352;2023-07-13T03:11:15;6.22;;;2.38;;
31043;SDS011;17710;52.520;13.352;2023-07-13T03:13:43;6.05;;;2.90;;
31043;SDS011;17710;52.520;13.352;2023-07-13T03:16:10;5.43;;;2.08;;
31043;SDS011;17710;52.520;13.352;2023-07-13T03:18:37;8.55;;;2.70;;
31043;SDS011;17710;52.520;13.352;2023-07-13T03:21:05;6.38;;;2.20;;
31043;SDS011;17710;52.520;13.352;2023-07-13T03:23:32;12.40;;;3.22;;
31043;SDS011;17710;52.520;13.352;2023-07-13T03:26:03;8.32;;;2.35;;
31043;SDS011;17710;52.520;13.352;2023-07-13T03:28:31;6.32;;;2.05;;
31043;SDS011;17710;52.520;13.352;2023-07-13T03:30:59;4.10;;;2.25;;
31043;SDS011;17710;52.520;13.352;2023-07-13T03:33:26;5.35;;;2.00;;
31043;SDS011;17710;52.520;13.352;2023-07-13T03:35:52;8.07;;;2.47;;
31043;SDS011;17710;52.520;13.352;2023-07-13T03:38:20;4.90;;;2.15;;
31043;SDS011;17710;52.520;13.352;2023-07-13T03:40:47;6.07;;;2.38;;
31043;SDS011;17710;52.520;13.352;2023-07-13T03:43:13;2.70;;;1.58;;
31043;SDS011;17710;52.520;13.352;2023-07-13T03:45:40;3.63;;;1.50;;
31043;SDS011;17710;52.520;13.352;2023-07-13T03:48:06;4.78;;;1.60;;
31043;SDS011;17710;52.520;13.352;2023-07-13T03:50:33;4.35;;;1.98;;
31043;SDS011;17710;52.520;13.352;2023-07-13T03:52:59;4.30;;;1.83;;
31043;SDS011;17710;52.520;13.352;2023-07-13T03:55:27;3.60;;;2.00;;
31043;SDS011;17710;52.520;13.352;2023-07-13T03:57:54;5.50;;;2.30;;
31043;SDS011;17710;52.520;13.352;2023-07-13T04:00:24;4.80;;;2.25;;
31043;SDS011;17710;52.520;13.352;2023-07-13T04:02:51;6.25;;;2.10;;
31043;SDS011;17710;52.520;13.352;2023-07-13T04:05:18;4.40;;;2.15;;
31043;SDS011;17710;52.520;13.352;2023-07-13T04:07:44;3.22;;;2.22;;
31043;SDS011;17710;52.520;13.352;2023-07-13T04:10:11;2.83;;;2.00;;
31043;SDS011;17710;52.520;13.352;2023-07-13T04:12:41;6.18;;;2.10;;
31043;SDS011;17710;52.520;13.352;2023-07-13T04:15:08;5.55;;;2.33;;
31043;SDS011;17710;52.520;13.352;2023-07-13T04:17:35;3.97;;;2.10;;
31043;SDS011;17710;52.520;13.352;2023-07-13T04:20:01;4.38;;;2.00;;
31043;SDS011;17710;52.520;13.352;2023-07-13T04:22:29;3.95;;;2.05;;
31043;SDS011;17710;52.520;13.352;2023-07-13T04:24:55;5.43;;;2.30;;
31043;SDS011;17710;52.520;13.352;2023-07-13T04:27:24;6.25;;;1.92;;
31043;SDS011;17710;52.520;13.352;2023-07-13T04:29:52;6.30;;;2.08;;
31043;SDS011;17710;52.520;13.352;2023-07-13T04:32:18;4.65;;;2.03;;
31043;SDS011;17710;52.520;13.352;2023-07-13T04:34:44;3.42;;;1.92;;
31043;SDS011;17710;52.520;13.352;2023-07-13T04:37:11;5.43;;;2.47;;
31043;SDS011;17710;52.520;13.352;2023-07-13T04:39:37;4.22;;;1.98;;
31043;SDS011;17710;52.520;13.352;2023-07-13T04:42:04;7.55;;;2.00;;
31043;SDS011;17710;52.520;13.352;2023-07-13T04:44:31;8.63;;;1.92;;
31043;SDS011;17710;52.520;13.352;2023-07-13T04:46:59;4.10;;;2.20;;
31043;SDS011;17710;52.520;13.352;2023-07-13T04:49:26;3.97;;;2.08;;
31043;SDS011;17710;52.520;13.352;2023-07-13T04:51:52;4.22;;;1.88;;
31043;SDS011;17710;52.520;13.352;2023-07-13T04:54:20;7.28;;;2.60;;
31043;SDS011;17710;52.520;13.352;2023-07-13T04:56:46;4.65;;;2.20;;
31043;SDS011;17710;52.520;13.352;2023-07-13T04:59:13;2.70;;;1.77;;
31043;SDS011;17710;52.520;13.352;2023-07-13T05:01:39;5.93;;;2.10;;
31043;SDS011;17710;52.520;13.352;2023-07-13T05:04:07;7.10;;;2.05;;
31043;SDS011;17710;52.520;13.352;2023-07-13T05:06:34;6.10;;;2.05;;
31043;SDS011;17710;52.520;13.352;2023-07-13T05:09:00;5.45;;;2.03;;
31043;SDS011;17710;52.520;13.352;2023-07-13T05:11:28;6.65;;;2.13;;
31043;SDS011;17710;52.520;13.352;2023-07-13T05:13:54;5.10;;;1.70;;
31043;SDS011;17710;52.520;13.352;2023-07-13T05:16:21;5.97;;;2.38;;
31043;SDS011;17710;52.520;13.352;2023-07-13T05:18:47;4.72;;;2.33;;
31043;SDS011;17710;52.520;13.352;2023-07-13T05:21:15;9.68;;;2.50;;
31043;SDS011;17710;52.520;13.352;2023-07-13T05:23:41;6.57;;;2.70;;
31043;SDS011;17710;52.520;13.352;2023-07-13T05:26:07;5.60;;;2.80;;
31043;SDS011;17710;52.520;13.352;2023-07-13T05:28:34;10.25;;;3.90;;
31043;SDS011;17710;52.520;13.352;2023-07-13T05:31:01;7.82;;;3.05;;
31043;SDS011;17710;52.520;13.352;2023-07-13T05:33:27;4.70;;;1.90;;
31043;SDS011;17710;52.520;13.352;2023-07-13T05:35:54;9.13;;;2.53;;
31043;SDS011;17710;52.520;13.352;2023-07-13T05:38:22;9.40;;;2.53;;
31043;SDS011;17710;52.520;13.352;2023-07-13T05:40:49;8.27;;;2.92;;
31043;SDS011;17710;52.520;13.352;2023-07-13T05:43:16;5.60;;;2.75;;
31043;SDS011;17710;52.520;13.352;2023-07-13T05:45:42;8.45;;;2.80;;
31043;SDS011;17710;52.520;13.352;2023-07-13T05:48:09;11.13;;;3.00;;
31043;SDS011;17710;52.520;13.352;2023-07-13T05:50:35;7.13;;;3.00;;
31043;SDS011;17710;52.520;13.352;2023-07-13T05:53:02;24.67;;;3.60;;
31043;SDS011;17710;52.520;13.352;2023-07-13T05:55:30;7.15;;;3.03;;
31043;SDS011;17710;52.520;13.352;2023-07-13T05:57:57;19.27;;;3.75;;
31043;SDS011;17710;52.520;13.352;2023-07-13T06:00:24;8.43;;;2.80;;
31043;SDS011;17710;52.520;13.352;2023-07-13T06:02:51;6.15;;;2.65;;
31043;SDS011;17710;52.520;13.352;2023-07-13T06:05:17;10.43;;;3.15;;
31043;SDS011;17710;52.520;13.352;2023-07-13T06:07:44;9.43;;;3.67;;
31043;SDS011;17710;52.520;13.352;2023-07-13T06:10:11;8.45;;;3.20;;
31043;SDS011;17710;52.520;13.352;2023-07-13T06:12:38;7.07;;;2.92;;
31043;SDS011;17710;52.520;13.352;2023-07-13T06:15:05;7.88;;;2.53;;
31043;SDS011;17710;52.520;13.352;2023-07-13T06:17:33;7.55;;;2.53;;
31043;SDS011;17710;52.520;13.352;2023-07-13T06:19:59;8.43;;;2.30;;
31043;SDS011;17710;52.520;13.352;2023-07-13T06:22:26;7.70;;;2.53;;
31043;SDS011;17710;52.520;13.352;2023-07-13T06:24:52;8.00;;;2.40;;
31043;SDS011;17710;52.520;13.352;2023-07-13T06:27:19;6.93;;;2.30;;
31043;SDS011;17710;52.520;13.352;2023-07-13T06:29:47;6.68;;;2.15;;
31043;SDS011;17710;52.520;13.352;2023-07-13T06:32:13;6.05;;;2.22;;
31043;SDS011;17710;52.520;13.352;2023-07-13T06:34:40;5.63;;;1.83;;
31043;SDS011;17710;52.520;13.352;2023-07-13T06:37:06;6.03;;;1.90;;
31043;SDS011;17710;52.520;13.352;2023-07-13T06:39:32;8.35;;;2.03;;
31043;SDS011;17710;52.520;13.352;2023-07-13T06:41:59;8.68;;;2.55;;
31043;SDS011;17710;52.520;13.352;2023-07-13T06:44:25;8.50;;;2.67;;
31043;SDS011;17710;52.520;13.352;2023-07-13T06:46:53;6.03;;;2.10;;
31043;SDS011;17710;52.520;13.352;2023-07-13T06:49:20;5.20;;;1.83;;
31043;SDS011;17710;52.520;13.352;2023-07-13T06:51:46;5.93;;;2.35;;
31043;SDS011;17710;52.520;13.352;2023-07-13T06:54:13;8.20;;;1.95;;
31043;SDS011;17710;52.520;13.352;2023-07-13T06:56:40;9.57;;;2.15;;
31043;SDS011;17710;52.520;13.352;2023-07-13T06:59:06;7.88;;;1.95;;
31043;SDS011;17710;52.520;13.352;2023-07-13T07:01:32;5.88;;;1.77;;
31043;SDS011;17710;52.520;13.352;2023-07-13T07:04:00;5.78;;;1.77;;
31043;SDS011;17710;52.520;13.352;2023-07-13T07:06:27;4.15;;;1.92;;
31043;SDS011;17710;52.520;13.352;2023-07-13T07:08:53;4.68;;;1.63;;
31043;SDS011;17710;52.520;13.352;2023-07-13T07:11:21;4.15;;;1.50;;
31043;SDS011;17710;52.520;13.352;2023-07-13T07:13:49;5.38;;;1.75;;
31043;SDS011;17710;52.520;13.352;2023-07-13T07:16:15;3.40;;;1.17;;
31043;SDS011;17710;52.520;13.352;2023-07-13T07:18:42;2.65;;;1.17;;
31043;SDS011;17710;52.520;13.352;2023-07-13T07:21:11;3.75;;;1.50;;
31043;SDS011;17710;52.520;13.352;2023-07-13T07:23:41;14.65;;;1.73;;
31043;SDS011;17710;52.520;13.352;2023-07-13T07:26:08;8.85;;;1.77;;
31043;SDS011;17710;52.520;13.352;2023-07-13T07:28:36;6.50;;;2.00;;
31043;SDS011;17710;52.520;13.352;2023-07-13T07:31:03;2.72;;;1.17;;
31043;SDS011;17710;52.520;13.352;2023-07-13T07:33:29;5.35;;;1.40;;
31043;SDS011;17710;52.520;13.352;2023-07-13T07:35:56;5.05;;;1.35;;
31043;SDS011;17710;52.520;13.352;2023-07-13T07:38:23;2.63;;;1.27;;
31043;SDS011;17710;52.520;13.352;2023-07-13T07:40:50;5.60;;;1.30;;
31043;SDS011;17710;52.520;13.352;2023-07-13T07:43:17;8.10;;;2.58;;
31043;SDS011;17710;52.520;13.352;2023-07-13T07:45:44;9.52;;;1.27;;
31043;SDS011;17710;52.520;13.352;2023-07-13T07:48:11;2.00;;;1.05;;
31043;SDS011;17710;52.520;13.352;2023-07-13T07:50:38;5.40;;;0.98;;
31043;SDS011;17710;52.520;13.352;2023-07-13T07:53:07;1.52;;;0.98;;
31043;SDS011;17710;52.520;13.352;2023-07-13T07:55:36;9.52;;;1.20;;
31043;SDS011;17710;52.520;13.352;2023-07-13T07:58:03;5.00;;;1.05;;
31043;SDS011;17710;52.520;13.352;2023-07-13T08:00:32;6.05;;;1.27;;
31043;SDS011;17710;52.520;13.352;2023-07-13T08:03:00;3.58;;;1.35;;
31043;SDS011;17710;52.520;13.352;2023-07-13T08:05:27;6.85;;;1.30;;
31043;SDS011;17710;52.520;13.352;2023-07-13T08:07:53;3.42;;;1.35;;
31043;SDS011;17710;52.520;13.352;2023-07-13T08:10:20;5.88;;;1.10;;
31043;SDS011;17710;52.520;13.352;2023-07-13T08:12:48;3.95;;;1.40;;
31043;SDS011;17710;52.520;13.352;2023-07-13T08:15:15;5.32;;;1.40;;
31043;SDS011;17710;52.520;13.352;2023-07-13T08:17:42;7.03;;;1.10;;
31043;SDS011;17710;52.520;13.352;2023-07-13T08:20:09;4.60;;;1.27;;
31043;SDS011;17710;52.520;13.352;2023-07-13T08:22:36;2.05;;;1.15;;
31043;SDS011;17710;52.520;13.352;2023-07-13T08:25:02;5.72;;;1.27;;
31043;SDS011;17710;52.520;13.352;2023-07-13T08:27:29;2.28;;;1.30;;
31043;SDS011;17710;52.520;13.352;2023-07-13T08:29:58;10.27;;;1.60;;
31043;SDS011;17710;52.520;13.352;2023-07-13T08:32:24;4.78;;;1.05;;
31043;SDS011;17710;52.520;13.352;2023-07-13T08:34:51;10.45;;;1.40;;
31043;SDS011;17710;52.520;13.352;2023-07-13T08:37:17;2.80;;;1.05;;
31043;SDS011;17710;52.520;13.352;2023-07-13T08:39:44;4.45;;;1.17;;
31043;SDS011;17710;52.520;13.352;2023-07-13T08:42:12;4.88;;;1.67;;
31043;SDS011;17710;52.520;13.352;2023-07-13T08:44:54;3.67;;;1.10;;
31043;SDS011;17710;52.520;13.352;2023-07-13T08:47:34;7.63;;;1.23;;
31043;SDS011;17710;52.520;13.352;2023-07-13T08:50:04;3.90;;;1.33;;
31043;SDS011;17710;52.520;13.352;2023-07-13T08:52:36;1.55;;;0.90;;
31043;SDS011;17710;52.520;13.352;2023-07-13T08:55:05;2.95;;;1.05;;
31043;SDS011;17710;52.520;13.352;2023-07-13T08:57:38;3.92;;;1.02;;
31043;SDS011;17710;52.520;13.352;2023-07-13T09:00:10;4.43;;;1.25;;
31043;SDS011;17710;52.520;13.352;2023-07-13T09:02:41;2.60;;;0.98;;
31043;SDS011;17710;52.520;13.352;2023-07-13T09:05:12;2.13;;;1.10;;
31043;SDS011;17710;52.520;13.352;2023-07-13T09:07:44;3.63;;;1.02;;
31043;SDS011;17710;52.520;13.352;2023-07-13T09:10:32;5.40;;;1.30;;
31043;SDS011;17710;52.520;13.352;2023-07-13T09:13:07;5.50;;;1.40;;
31043;SDS011;17710;52.520;13.352;2023-07-13T09:15:46;2.20;;;1.10;;
31043;SDS011;17710;52.520;13.352;2023-07-13T09:18:16;5.40;;;1.30;;
31043;SDS011;17710;52.520;13.352;2023-07-13T09:20:49;2.90;;;1.10;;
31043;SDS011;17710;52.520;13.352;2023-07-13T09:23:20;6.15;;;1.20;;
31043;SDS011;17710;52.520;13.352;2023-07-13T09:25:48;4.43;;;1.23;;
31043;SDS011;17710;52.520;13.352;2023-07-13T09:28:20;3.17;;;0.98;;
31043;SDS011;17710;52.520;13.352;2023-07-13T09:30:52;4.35;;;1.50;;
31043;SDS011;17710;52.520;13.352;2023-07-13T09:33:24;4.88;;;2.20;;
31043;SDS011;17710;52.520;13.352;2023-07-13T09:35:54;7.07;;;1.40;;
31043;SDS011;17710;52.520;13.352;2023-07-13T09:38:24;3.67;;;1.45;;
31043;SDS011;17710;52.520;13.352;2023-07-13T09:41:02;2.95;;;1.15;;
31043;SDS011;17710;52.520;13.352;2023-07-13T09:46:45;5.20;;;1.70;;
31043;SDS011;17710;52.520;13.352;2023-07-13T09:49:13;6.50;;;1.58;;
31043;SDS011;17710;52.520;13.352;2023-07-13T09:51:40;3.10;;;1.58;;
31043;SDS011;17710;52.520;13.352;2023-07-13T09:54:16;5.80;;;1.90;;
31043;SDS011;17710;52.520;13.352;2023-07-13T09:56:44;3.85;;;2.25;;
31043;SDS011;17710;52.520;13.352;2023-07-13T09:59:17;8.18;;;1.98;;
31043;SDS011;17710;52.520;13.352;2023-07-13T10:01:46;3.67;;;1.90;;
31043;SDS011;17710;52.520;13.352;2023-07-13T10:04:13;2.83;;;1.75;;
31043;SDS011;17710;52.520;13.352;2023-07-13T10:06:44;6.72;;;4.20;;
31043;SDS011;17710;52.520;13.352;2023-07-13T10:09:14;5.90;;;3.40;;
31043;SDS011;17710;52.520;13.352;2023-07-13T10:11:41;4.18;;;1.98;;
31043;SDS011;17710;52.520;13.352;2023-07-13T10:14:10;3.10;;;1.98;;
31043;SDS011;17710;52.520;13.352;2023-07-13T10:16:39;8.63;;;2.30;;
31043;SDS011;17710;52.520;13.352;2023-07-13T10:19:11;4.43;;;1.70;;
31043;SDS011;17710;52.520;13.352;2023-07-13T10:21:43;6.00;;;1.92;;
31043;SDS011;17710;52.520;13.352;2023-07-13T10:24:17;7.78;;;1.98;;
31043;SDS011;17710;52.520;13.352;2023-07-13T10:26:48;5.63;;;1.63;;
31043;SDS011;17710;52.520;13.352;2023-07-13T10:29:20;20.73;;;3.00;;
31043;SDS011;17710;52.520;13.352;2023-07-13T10:31:49;19.77;;;2.70;;
31043;SDS011;17710;52.520;13.352;2023-07-13T10:34:17;4.90;;;1.90;;
31043;SDS011;17710;52.520;13.352;2023-07-13T10:36:44;7.85;;;1.67;;
31043;SDS011;17710;52.520;13.352;2023-07-13T10:39:14;4.10;;;1.50;;
31043;SDS011;17710;52.520;13.352;2023-07-13T10:41:44;4.63;;;1.70;;
31043;SDS011;17710;52.520;13.352;2023-07-13T10:44:17;7.78;;;1.95;;
31043;SDS011;17710;52.520;13.352;2023-07-13T10:46:50;4.35;;;1.63;;
31043;SDS011;17710;52.520;13.352;2023-07-13T10:49:19;3.95;;;1.50;;
31043;SDS011;17710;52.520;13.352;2023-07-13T10:51:47;9.85;;;1.80;;
31043;SDS011;17710;52.520;13.352;2023-07-13T10:54:17;4.30;;;1.80;;
31043;SDS011;17710;52.520;13.352;2023-07-13T10:56:49;2.38;;;1.63;;
31043;SDS011;17710;52.520;13.352;2023-07-13T10:59:17;7.13;;;2.20;;
31043;SDS011;17710;52.520;13.352;2023-07-13T11:01:52;3.53;;;1.80;;
31043;SDS011;17710;52.520;13.352;2023-07-13T11:04:23;5.55;;;1.73;;
31043;SDS011;17710;52.520;13.352;2023-07-13T11:06:53;3.58;;;1.70;;
31043;SDS011;17710;52.520;13.352;2023-07-13T11:09:31;6.82;;;2.05;;
31043;SDS011;17710;52.520;13.352;2023-07-13T11:12:02;5.45;;;1.90;;
31043;SDS011;17710;52.520;13.352;2023-07-13T11:14:34;4.30;;;1.80;;
31043;SDS011;17710;52.520;13.352;2023-07-13T11:20:08;6.47;;;1.92;;
31043;SDS011;17710;52.520;13.352;2023-07-13T11:22:50;7.53;;;2.17;;
31043;SDS011;17710;52.520;13.352;2023-07-13T11:25:24;8.38;;;1.92;;
31043;SDS011;17710;52.520;13.352;2023-07-13T11:28:04;3.58;;;1.50;;
31043;SDS011;17710;52.520;13.352;2023-07-13T11:30:36;3.15;;;1.60;;
31043;SDS011;17710;52.520;13.352;2023-07-13T11:33:10;4.22;;;1.63;;
31043;SDS011;17710;52.520;13.352;2023-07-13T11:35:45;4.90;;;1.75;;
31043;SDS011;17710;52.520;13.352;2023-07-13T11:38:17;2.85;;;1.80;;
31043;SDS011;17710;52.520;13.352;2023-07-13T11:40:47;3.80;;;1.42;;
31043;SDS011;17710;52.520;13.352;2023-07-13T11:43:16;4.53;;;1.65;;
31043;SDS011;17710;52.520;13.352;2023-07-13T11:45:43;3.17;;;1.45;;
31043;SDS011;17710;52.520;13.352;2023-07-13T11:50:58;3.17;;;1.38;;
31043;SDS011;17710;52.520;13.352;2023-07-13T11:53:28;6.32;;;1.55;;
31043;SDS011;17710;52.520;13.352;2023-07-13T11:55:57;5.80;;;1.52;;
31043;SDS011;17710;52.520;13.352;2023-07-13T11:58:25;4.72;;;1.50;;
31043;SDS011;17710;52.520;13.352;2023-07-13T12:00:53;4.70;;;1.83;;
31043;SDS011;17710;52.520;13.352;2023-07-13T12:03:23;5.15;;;2.28;;
31043;SDS011;17710;52.520;13.352;2023-07-13T12:05:59;1.85;;;1.15;;
31043;SDS011;17710;52.520;13.352;2023-07-13T12:08:28;5.20;;;1.67;;
31043;SDS011;17710;52.520;13.352;2023-07-13T12:10:59;7.88;;;1.88;;
31043;SDS011;17710;52.520;13.352;2023-07-13T12:13:26;5.95;;;1.80;;
31043;SDS011;17710;52.520;13.352;2023-07-13T12:15:55;2.78;;;1.60;;
31043;SDS011;17710;52.520;13.352;2023-07-13T12:18:23;7.40;;;1.55;;
31043;SDS011;17710;52.520;13.352;2023-07-13T12:20:55;5.07;;;1.60;;
31043;SDS011;17710;52.520;13.352;2023-07-13T12:23:27;3.42;;;1.50;;
31043;SDS011;17710;52.520;13.352;2023-07-13T12:25:56;8.52;;;2.00;;
31043;SDS011;17710;52.520;13.352;2023-07-13T12:28:30;3.30;;;1.42;;
31043;SDS011;17710;52.520;13.352;2023-07-13T12:30:58;4.70;;;1.33;;
31043;SDS011;17710;52.520;13.352;2023-07-13T12:33:27;3.58;;;1.45;;
31043;SDS011;17710;52.520;13.352;2023-07-13T12:35:54;4.30;;;1.35;;
31043;SDS011;17710;52.520;13.352;2023-07-13T12:38:24;7.55;;;1.42;;
31043;SDS011;17710;52.520;13.352;2023-07-13T12:40:52;4.72;;;1.65;;
31043;SDS011;17710;52.520;13.352;2023-07-13T12:43:20;5.05;;;1.40;;
31043;SDS011;17710;52.520;13.352;2023-07-13T12:45:54;3.92;;;1.20;;
31043;SDS011;17710;52.520;13.352;2023-07-13T12:48:22;5.97;;;1.58;;
31043;SDS011;17710;52.520;13.352;2023-07-13T12:50:48;3.35;;;1.10;;
31043;SDS011;17710;52.520;13.352;2023-07-13T12:53:17;7.00;;;1.42;;
31043;SDS011;17710;52.520;13.352;2023-07-13T12:55:47;5.82;;;1.63;;
31043;SDS011;17710;52.520;13.352;2023-07-13T12:58:17;4.75;;;1.40;;
31043;SDS011;17710;52.520;13.352;2023-07-13T13:03:22;4.78;;;1.25;;
31043;SDS011;17710;52.520;13.352;2023-07-13T13:06:01;4.47;;;1.20;;
31043;SDS011;17710;52.520;13.352;2023-07-13T13:08:29;8.57;;;1.92;;
31043;SDS011;17710;52.520;13.352;2023-07-13T13:10:57;5.05;;;1.50;;
31043;SDS011;17710;52.520;13.352;2023-07-13T13:13:24;6.47;;;1.70;;
31043;SDS011;17710;52.520;13.352;2023-07-13T13:15:50;6.90;;;1.80;;
31043;SDS011;17710;52.520;13.352;2023-07-13T13:18:17;3.85;;;1.15;;
31043;SDS011;17710;52.520;13.352;2023-07-13T13:20:45;3.75;;;1.15;;
31043;SDS011;17710;52.520;13.352;2023-07-13T13:23:12;3.03;;;1.10;;
31043;SDS011;17710;52.520;13.352;2023-07-13T13:25:40;4.57;;;1.45;;
31043;SDS011;17710;52.520;13.352;2023-07-13T13:28:12;7.13;;;1.50;;
31043;SDS011;17710;52.520;13.352;2023-07-13T13:30:40;5.85;;;1.25;;
31043;SDS011;17710;52.520;13.352;2023-07-13T13:33:08;5.03;;;1.42;;
31043;SDS011;17710;52.520;13.352;2023-07-13T13:35:37;5.88;;;1.30;;
31043;SDS011;17710;52.520;13.352;2023-07-13T13:38:04;7.43;;;1.38;;
31043;SDS011;17710;52.520;13.352;2023-07-13T13:40:36;6.20;;;1.50;;
31043;SDS011;17710;52.520;13.352;2023-07-13T13:43:04;4.82;;;1.15;;
31043;SDS011;17710;52.520;13.352;2023-07-13T13:45:41;3.63;;;1.13;;
31043;SDS011;17710;52.520;13.352;2023-07-13T13:48:07;4.30;;;1.23;;
31043;SDS011;17710;52.520;13.352;2023-07-13T13:50:39;5.05;;;1.10;;
31043;SDS011;17710;52.520;13.352;2023-07-13T13:53:07;4.72;;;1.23;;
31043;SDS011;17710;52.520;13.352;2023-07-13T13:55:35;3.53;;;1.00;;
31043;SDS011;17710;52.520;13.352;2023-07-13T13:58:02;4.63;;;1.02;;
31043;SDS011;17710;52.520;13.352;2023-07-13T14:00:28;5.60;;;1.08;;
31043;SDS011;17710;52.520;13.352;2023-07-13T14:02:56;3.45;;;0.98;;
31043;SDS011;17710;52.520;13.352;2023-07-13T14:05:24;6.15;;;1.20;;
31043;SDS011;17710;52.520;13.352;2023-07-13T14:07:52;2.60;;;1.20;;
31043;SDS011;17710;52.520;13.352;2023-07-13T14:10:18;3.25;;;1.15;;
31043;SDS011;17710;52.520;13.352;2023-07-13T14:12:46;2.97;;;1.27;;
31043;SDS011;17710;52.520;13.352;2023-07-13T14:15:15;3.65;;;0.93;;
31043;SDS011;17710;52.520;13.352;2023-07-13T14:17:45;2.78;;;1.25;;
31043;SDS011;17710;52.520;13.352;2023-07-13T14:20:16;7.05;;;1.33;;
31043;SDS011;17710;52.520;13.352;2023-07-13T14:22:43;5.15;;;1.20;;
31043;SDS011;17710;52.520;13.352;2023-07-13T14:25:10;6.47;;;1.33;;
31043;SDS011;17710;52.520;13.352;2023-07-13T14:27:37;3.22;;;1.15;;
31043;SDS011;17710;52.520;13.352;2023-07-13T14:30:04;4.38;;;1.27;;
31043;SDS011;17710;52.520;13.352;2023-07-13T14:32:35;2.35;;;1.13;;
31043;SDS011;17710;52.520;13.352;2023-07-13T14:35:02;2.67;;;0.70;;
31043;SDS011;17710;52.520;13.352;2023-07-13T14:37:30;1.73;;;0.80;;
31043;SDS011;17710;52.520;13.352;2023-07-13T14:39:56;6.47;;;1.15;;
31043;SDS011;17710;52.520;13.352;2023-07-13T14:42:23;4.93;;;1.20;;
31043;SDS011;17710;52.520;13.352;2023-07-13T14:44:49;4.00;;;1.10;;
31043;SDS011;17710;52.520;13.352;2023-07-13T14:47:16;3.10;;;1.30;;
31043;SDS011;17710;52.520;13.352;2023-07-13T14:49:44;2.65;;;1.02;;
31043;SDS011;17710;52.520;13.352;2023-07-13T14:52:13;4.63;;;1.13;;